Terminal Aerodrome Forecast
Issued by NWS Sterling, VA

Home | Current Version | Previous Version | Text Only | Print | Product List | Glossary On
Versions: 1 2 3 4 5 6 7 8 9 10 11 12 13 14 15 16
000
FTUS41 KLWX 312300 RRA
TAFMRB
TAF
KMRB 312345Z 0100/0124 10007KT P6SM OVC050
     FM010200 04005KT P6SM OVC050
     FM011100 35005KT P6SM OVC025
     FM011400 35010KT P6SM OVC015
     FM011500 35012KT 6SM -SHRA OVC015
     FM011800 35016G24KT P6SM OVC015
     FM012100 34013KT P6SM OVC025=

USA.gov is the U.S. government's official web portal to all federal, state and local government web resources and services.